createdAt,value
2023-03-03T00:01:13.618Z,45.87
2023-03-03T00:04:17.815Z,44.50
2023-03-03T00:07:23.153Z,47.47
2023-03-03T00:10:26.154Z,40.37
2023-03-03T00:13:31.850Z,44.83
2023-03-03T00:16:38.550Z,44.87
2023-03-03T00:19:44.803Z,41.97
2023-03-03T00:22:47.640Z,48.93
2023-03-03T00:25:53.766Z,47.23
2023-03-03T00:28:56.982Z,48.40
2023-03-03T00:32:25.413Z,41.30
2023-03-03T00:35:35.413Z,44.97
2023-03-03T00:38:38.269Z,44.57
2023-03-03T00:41:41.652Z,45.77
2023-03-03T00:44:46.146Z,43.70
2023-03-03T00:47:49.211Z,46.67
2023-03-03T00:50:54.412Z,43.23
2023-03-03T00:53:58.253Z,41.23
2023-03-03T00:57:01.074Z,42.50
2023-03-03T01:00:04.540Z,48.53
2023-03-03T01:03:10.296Z,45.33
2023-03-03T01:06:15.346Z,45.70
2023-03-03T01:09:18.149Z,46.03
2023-03-03T01:12:21.131Z,40.47
2023-03-03T01:15:24.253Z,41.90
2023-03-03T01:18:27.740Z,40.77
2023-03-03T01:21:31.950Z,42.60
2023-03-03T01:24:34.799Z,44.40
2023-03-03T01:27:38.092Z,43.73
2023-03-03T01:30:41.093Z,44.33
2023-03-03T01:33:44.040Z,44.90
2023-03-03T01:36:48.363Z,41.43
2023-03-03T01:39:52.082Z,46.40
2023-03-03T01:42:55.047Z,38.83
2023-03-03T01:46:29.577Z,45.13
2023-03-03T01:49:37.375Z,41.10
2023-03-03T01:52:45.520Z,42.63
2023-03-03T01:55:49.873Z,50.50
2023-03-03T01:58:59.863Z,38.47
2023-03-03T02:02:02.875Z,42.37
2023-03-03T02:05:06.212Z,49.50
2023-03-03T02:08:13.702Z,42.90
2023-03-03T02:11:17.986Z,41.67
2023-03-03T02:14:21.238Z,47.07
2023-03-03T02:17:24.459Z,39.27
2023-03-03T02:20:40.367Z,43.87
2023-03-03T02:23:51.790Z,36.80
2023-03-03T02:26:56.542Z,39.67
2023-03-03T02:29:59.665Z,40.40
2023-03-03T02:33:02.542Z,40.90
2023-03-03T02:36:05.646Z,41.63
2023-03-03T02:39:12.240Z,37.30
2023-03-03T02:42:21.475Z,41.60
2023-03-03T02:45:24.296Z,44.37
2023-03-03T02:48:27.137Z,45.70
2023-03-03T02:51:29.965Z,40.77
2023-03-03T02:54:33.241Z,39.67
2023-03-03T02:57:37.417Z,42.53
2023-03-03T03:00:40.258Z,40.33
2023-03-03T03:03:43.203Z,36.90
2023-03-03T03:06:46.890Z,45.87
2023-03-03T03:09:50.008Z,35.53
2023-03-03T03:12:54.167Z,43.27
2023-03-03T03:15:56.987Z,37.93
2023-03-03T03:19:01.201Z,44.07
2023-03-03T03:22:04.092Z,43.57
2023-03-03T03:25:07.723Z,41.47
2023-03-03T03:28:12.131Z,42.67
2023-03-03T03:31:15.504Z,44.93
2023-03-03T03:34:18.338Z,40.43
2023-03-03T03:37:21.271Z,39.43
2023-03-03T03:40:25.508Z,35.03
2023-03-03T03:43:29.941Z,40.57
2023-03-03T03:46:32.784Z,42.50
2023-03-03T03:49:35.877Z,36.03
2023-03-03T03:52:39.134Z,44.37
2023-03-03T03:55:41.980Z,40.57
2023-03-03T03:58:46.137Z,42.27
2023-03-03T04:01:50.066Z,44.90
2023-03-03T04:04:52.931Z,41.37
2023-03-03T04:07:55.751Z,42.63
2023-03-03T04:10:58.549Z,43.37
2023-03-03T04:14:02.806Z,48.13
2023-03-03T04:17:05.661Z,44.47
2023-03-03T04:20:11.585Z,42.47
2023-03-03T04:23:14.756Z,48.30
2023-03-03T04:26:17.848Z,42.70
2023-03-03T04:29:22.015Z,51.33
2023-03-03T04:32:24.977Z,43.67
2023-03-03T04:35:27.940Z,45.10
2023-03-03T04:38:31.052Z,46.37
2023-03-03T04:41:33.892Z,47.33
2023-03-03T04:44:38.054Z,45.83
2023-03-03T04:47:41.318Z,47.40
2023-03-03T04:50:44.365Z,47.20
2023-03-03T04:53:47.384Z,51.13
2023-03-03T04:56:50.234Z,51.90
2023-03-03T04:59:54.467Z,51.03
2023-03-03T05:02:57.303Z,49.70
2023-03-03T05:06:00.139Z,46.53
2023-03-03T05:09:03.802Z,52.57
2023-03-03T05:12:07.259Z,41.33
2023-03-03T05:15:12.096Z,47.10
2023-03-03T05:18:14.921Z,49.97
2023-03-03T05:21:17.740Z,44.03
2023-03-03T05:24:20.578Z,48.80
2023-03-03T05:27:23.398Z,47.00
2023-03-03T05:30:27.587Z,49.90
2023-03-03T05:33:30.479Z,52.33
2023-03-03T05:36:33.292Z,46.93
2023-03-03T05:39:36.503Z,49.10
2023-03-03T05:42:39.431Z,56.67
2023-03-03T05:45:43.704Z,48.90
2023-03-03T05:48:46.735Z,49.13
2023-03-03T05:51:49.548Z,48.60
2023-03-03T05:54:52.374Z,51.93
2023-03-03T05:57:55.995Z,44.53
2023-03-03T06:01:00.174Z,56.77
2023-03-03T06:04:02.981Z,71.93
2023-03-03T06:07:05.795Z,50.27
2023-03-03T06:10:09.398Z,49.20
2023-03-03T06:13:12.244Z,51.87
2023-03-03T06:16:16.448Z,54.10
2023-03-03T06:19:19.329Z,54.03
2023-03-03T06:22:22.135Z,46.73
2023-03-03T06:25:24.977Z,59.83
2023-03-03T06:28:28.188Z,68.93
2023-03-03T06:31:32.916Z,76.40
2023-03-03T06:34:36.110Z,82.37
2023-03-03T06:37:39.101Z,64.70
2023-03-03T06:40:42.255Z,67.80
2023-03-03T06:43:46.153Z,63.13
2023-03-03T06:46:50.510Z,60.43
2023-03-03T06:49:53.513Z,66.47
2023-03-03T06:53:03.725Z,60.77
2023-03-03T06:56:10.402Z,56.17
2023-03-03T06:59:16.425Z,52.20
2023-03-03T07:02:21.272Z,56.70
2023-03-03T07:05:28.757Z,57.67
2023-03-03T07:08:33.102Z,56.73
2023-03-03T07:11:39.647Z,61.40
2023-03-03T07:14:44.890Z,52.17
2023-03-03T07:17:51.252Z,52.43
2023-03-03T07:20:54.211Z,47.07
2023-03-03T07:23:57.626Z,61.27
2023-03-03T07:27:07.589Z,58.60
2023-03-03T07:30:26.374Z,57.83
2023-03-03T07:33:35.464Z,60.50
2023-03-03T07:36:38.806Z,55.93
2023-03-03T07:39:45.711Z,60.40
2023-03-03T07:42:48.788Z,52.13
2023-03-03T07:45:51.792Z,60.63
2023-03-03T07:48:57.018Z,56.80
2023-03-03T07:52:01.173Z,56.10
2023-03-03T07:55:24.402Z,56.43
2023-03-03T07:58:38.059Z,54.00
2023-03-03T08:01:42.667Z,56.93
2023-03-03T08:04:50.920Z,53.00
2023-03-03T08:07:53.867Z,60.10
2023-03-03T08:10:57.566Z,54.50
2023-03-03T08:14:00.827Z,56.57
2023-03-03T08:17:08.430Z,57.50
2023-03-03T08:20:52.991Z,60.73
2023-03-03T08:23:57.143Z,56.53
2023-03-03T08:26:59.965Z,53.57
2023-03-03T08:30:02.777Z,69.50
2023-03-03T08:33:05.896Z,59.47
2023-03-03T08:36:09.507Z,56.97
2023-03-03T08:39:13.729Z,61.53
2023-03-03T08:42:16.645Z,54.73
2023-03-03T08:45:19.489Z,60.00
2023-03-03T08:48:22.534Z,57.60
2023-03-03T08:51:26.314Z,54.70
2023-03-03T08:54:30.703Z,57.90
2023-03-03T08:57:33.510Z,59.03
2023-03-03T09:00:36.788Z,60.80
2023-03-03T09:03:39.865Z,59.10
2023-03-03T09:06:42.764Z,58.77
2023-03-03T09:09:46.950Z,60.10
2023-03-03T09:12:50.055Z,58.03
2023-03-03T09:15:52.912Z,58.00
2023-03-03T09:18:58.042Z,56.87
2023-03-03T09:22:12.704Z,62.00
2023-03-03T09:25:24.174Z,52.00
2023-03-03T09:28:29.625Z,67.40
2023-03-03T09:31:40.568Z,60.70
2023-03-03T09:34:44.467Z,66.73
2023-03-03T09:37:51.268Z,58.53
2023-03-03T09:41:25.681Z,59.00
2023-03-03T09:44:57.763Z,60.07
2023-03-03T09:48:24.550Z,63.53
2023-03-03T09:52:19.322Z,53.90
2023-03-03T09:55:37.035Z,57.37
2023-03-03T09:59:08.103Z,54.27
2023-03-03T10:02:34.883Z,53.77
2023-03-03T10:05:48.689Z,57.67
2023-03-03T10:09:11.386Z,62.10
2023-03-03T10:12:20.629Z,53.10
2023-03-03T10:15:38.054Z,51.57
2023-03-03T10:18:49.706Z,48.93
2023-03-03T10:22:00.368Z,57.30
2023-03-03T10:25:20.451Z,64.70
2023-03-03T10:28:50.386Z,75.03
2023-03-03T10:32:10.672Z,58.63
2023-03-03T10:35:39.666Z,59.13
2023-03-03T10:38:55.401Z,48.33
2023-03-03T10:42:10.753Z,55.10
2023-03-03T10:45:35.205Z,52.07
2023-03-03T10:48:55.329Z,51.93
2023-03-03T10:52:19.876Z,55.10
2023-03-03T10:55:34.574Z,55.17
2023-03-03T10:58:50.274Z,53.70
2023-03-03T11:01:58.629Z,51.77
2023-03-03T11:05:15.406Z,54.57
2023-03-03T11:08:23.937Z,55.67
2023-03-03T11:11:38.508Z,57.37
2023-03-03T11:14:49.075Z,52.20
2023-03-03T11:18:02.775Z,52.47
2023-03-03T11:21:14.849Z,53.47
2023-03-03T11:24:29.256Z,55.73
2023-03-03T11:27:56.346Z,65.67
2023-03-03T11:31:12.633Z,55.90
2023-03-03T11:34:28.108Z,48.97
2023-03-03T11:37:40.447Z,56.90
2023-03-03T11:40:49.657Z,58.20
2023-03-03T11:43:55.539Z,57.03
2023-03-03T11:47:01.874Z,54.37
2023-03-03T11:50:09.521Z,53.87
2023-03-03T11:53:27.712Z,51.90
2023-03-03T11:56:36.981Z,59.77
2023-03-03T11:59:57.212Z,49.67
2023-03-03T12:03:12.005Z,51.73
2023-03-03T12:06:26.857Z,47.33
2023-03-03T12:09:42.387Z,63.23
2023-03-03T12:12:48.768Z,52.83
2023-03-03T12:15:56.558Z,56.63
2023-03-03T12:19:13.698Z,45.43
2023-03-03T12:22:34.057Z,47.30
2023-03-03T12:25:43.764Z,51.00
2023-03-03T12:28:53.634Z,51.80
2023-03-03T12:32:06.327Z,49.60
2023-03-03T12:35:18.821Z,46.03
2023-03-03T12:38:35.171Z,48.90
2023-03-03T12:41:47.099Z,49.57
2023-03-03T12:44:59.328Z,48.37
2023-03-03T12:48:08.613Z,45.50
2023-03-03T12:51:22.614Z,49.23
2023-03-03T12:54:53.673Z,47.13
2023-03-03T12:58:07.567Z,46.17
2023-03-03T13:01:21.571Z,48.87
2023-03-03T13:04:34.976Z,47.53
2023-03-03T13:07:46.126Z,47.17
2023-03-03T13:10:56.482Z,42.80
2023-03-03T13:14:06.536Z,52.37
2023-03-03T13:17:21.137Z,45.47
2023-03-03T13:20:31.938Z,44.37
2023-03-03T13:23:48.497Z,52.40
2023-03-03T13:26:56.386Z,43.70
2023-03-03T13:30:04.407Z,45.50
2023-03-03T13:33:12.536Z,47.53
2023-03-03T13:36:19.229Z,40.07
2023-03-03T13:39:26.428Z,45.87
2023-03-03T13:42:36.480Z,42.87
2023-03-03T13:45:51.460Z,44.03
2023-03-03T13:49:08.604Z,44.27
2023-03-03T13:52:14.078Z,41.07
2023-03-03T13:55:26.834Z,49.80
2023-03-03T13:58:38.471Z,46.73
2023-03-03T14:01:53.809Z,46.47
2023-03-03T14:05:02.607Z,41.80
2023-03-03T14:08:12.127Z,47.33
2023-03-03T14:11:23.365Z,46.77
2023-03-03T14:14:38.754Z,41.13
2023-03-03T14:17:56.180Z,38.97
2023-03-03T14:21:05.881Z,48.00
2023-03-03T14:24:15.991Z,41.70
2023-03-03T14:27:26.417Z,40.83
2023-03-03T14:30:32.714Z,45.47
2023-03-03T14:33:37.062Z,45.47
2023-03-03T14:36:41.488Z,42.23
2023-03-03T14:40:02.282Z,45.37
2023-03-03T14:43:21.954Z,43.53
2023-03-03T14:46:37.889Z,41.63
2023-03-03T14:49:42.469Z,42.00
2023-03-03T14:52:45.426Z,36.03
2023-03-03T14:55:50.020Z,42.33
2023-03-03T14:58:54.315Z,42.77
2023-03-03T15:02:25.316Z,37.47
2023-03-03T15:05:30.945Z,41.07
2023-03-03T15:08:35.914Z,38.50
2023-03-03T15:11:38.879Z,39.47
2023-03-03T15:14:46.725Z,39.10
2023-03-03T15:17:57.999Z,42.10
2023-03-03T15:21:05.852Z,43.57
2023-03-03T15:24:14.117Z,38.80
2023-03-03T15:27:22.166Z,36.10
2023-03-03T15:30:32.090Z,38.20
2023-03-03T15:33:43.300Z,36.37
2023-03-03T15:36:53.978Z,48.50
2023-03-03T15:40:04.410Z,37.57
2023-03-03T15:43:15.055Z,40.30
2023-03-03T15:46:28.625Z,42.83
2023-03-03T15:49:54.182Z,40.53
2023-03-03T15:53:12.123Z,37.83
2023-03-03T15:56:29.103Z,47.37
2023-03-03T15:59:52.942Z,44.23
2023-03-03T16:02:59.190Z,41.93
2023-03-03T16:06:07.486Z,42.43
2023-03-03T16:09:25.421Z,42.73
2023-03-03T16:12:40.302Z,41.80
2023-03-03T16:15:52.772Z,50.10
2023-03-03T16:19:07.736Z,43.37
2023-03-03T16:22:23.639Z,41.47
2023-03-03T16:25:37.738Z,46.67
2023-03-03T16:28:53.339Z,44.80
2023-03-03T16:32:02.363Z,53.80
2023-03-03T16:35:20.353Z,41.33
2023-03-03T16:38:26.611Z,43.03
2023-03-03T16:41:43.676Z,45.97
2023-03-03T16:44:52.666Z,44.80
2023-03-03T16:48:24.030Z,45.10
2023-03-03T16:51:35.449Z,52.53
2023-03-03T16:54:44.590Z,52.23
2023-03-03T16:58:00.367Z,47.73
2023-03-03T17:01:14.424Z,41.30
2023-03-03T17:04:32.506Z,50.03
2023-03-03T17:07:45.650Z,46.70
2023-03-03T17:10:55.282Z,53.17
2023-03-03T17:14:24.766Z,50.30
2023-03-03T17:17:37.452Z,44.30
2023-03-03T17:20:48.322Z,51.03
2023-03-03T17:24:01.804Z,46.77
2023-03-03T17:27:13.198Z,54.70
2023-03-03T17:30:24.278Z,48.80
2023-03-03T17:33:41.972Z,46.67
2023-03-03T17:36:56.010Z,50.10
2023-03-03T17:40:24.611Z,58.17
2023-03-03T17:43:32.636Z,57.83
2023-03-03T17:46:40.880Z,49.70
2023-03-03T17:49:57.876Z,53.10
2023-03-03T17:53:26.656Z,52.30
2023-03-03T17:56:32.535Z,46.93
2023-03-03T17:59:49.697Z,54.07
2023-03-03T18:03:18.968Z,60.43
2023-03-03T18:06:43.536Z,57.77
2023-03-03T18:10:16.069Z,57.97
2023-03-03T18:13:36.589Z,59.13
2023-03-03T18:17:01.513Z,56.90
2023-03-03T18:20:37.927Z,61.70
2023-03-03T18:23:42.700Z,54.97
2023-03-03T18:26:45.590Z,65.10
2023-03-03T18:30:35.363Z,54.93
2023-03-03T18:33:44.445Z,63.33
2023-03-03T18:36:56.257Z,56.50
2023-03-03T18:40:22.437Z,59.57
2023-03-03T18:43:54.956Z,58.30
2023-03-03T18:46:58.804Z,63.03
2023-03-03T18:50:15.682Z,53.37
2023-03-03T18:53:29.861Z,58.07
2023-03-03T18:56:48.627Z,57.47
2023-03-03T18:59:57.148Z,61.80
2023-03-03T19:03:01.186Z,60.90
2023-03-03T19:06:08.515Z,66.93
2023-03-03T19:09:20.168Z,64.90
2023-03-03T19:12:52.839Z,63.03
2023-03-03T19:15:59.125Z,63.50
2023-03-03T19:19:07.283Z,69.73
2023-03-03T19:22:25.692Z,60.27
2023-03-03T19:25:31.779Z,66.57
2023-03-03T19:28:39.690Z,66.10
2023-03-03T19:31:49.705Z,59.63
2023-03-03T19:35:01.473Z,57.43
2023-03-03T19:38:19.177Z,59.07
2023-03-03T19:41:36.757Z,59.17
2023-03-03T19:44:59.055Z,63.23
2023-03-03T19:48:10.065Z,56.23
2023-03-03T19:51:22.064Z,64.33
2023-03-03T19:54:55.837Z,67.03
2023-03-03T19:58:11.437Z,57.40
2023-03-03T20:01:21.972Z,67.50
2023-03-03T20:04:38.153Z,62.07
2023-03-03T20:07:46.995Z,62.23
2023-03-03T20:10:57.120Z,62.83
2023-03-03T20:14:07.240Z,61.37
2023-03-03T20:17:32.087Z,62.87
2023-03-03T20:21:08.959Z,59.00
2023-03-03T20:24:41.746Z,58.40
2023-03-03T20:27:51.318Z,59.77
2023-03-03T20:31:04.682Z,63.37
2023-03-03T20:34:17.121Z,61.63
2023-03-03T20:37:26.525Z,62.43
2023-03-03T20:40:36.959Z,65.03
2023-03-03T20:43:50.316Z,63.63
2023-03-03T20:47:04.540Z,63.37
2023-03-03T20:50:17.567Z,64.80
2023-03-03T20:53:27.391Z,64.23
2023-03-03T20:56:36.384Z,67.53
2023-03-03T20:59:43.837Z,65.33
2023-03-03T21:02:54.656Z,59.70
2023-03-03T21:06:00.160Z,62.53
2023-03-03T21:09:03.028Z,60.97
2023-03-03T21:12:12.838Z,62.30
2023-03-03T21:15:25.977Z,59.43
2023-03-03T21:18:31.729Z,60.57
2023-03-03T21:21:36.699Z,58.07
2023-03-03T21:24:54.550Z,72.93
2023-03-03T21:28:14.504Z,65.67
2023-03-03T21:31:17.967Z,67.47
2023-03-03T21:34:25.420Z,65.83
2023-03-03T21:37:45.735Z,67.73
2023-03-03T21:41:00.208Z,65.67
2023-03-03T21:44:03.067Z,66.20
2023-03-03T21:47:07.167Z,63.87
2023-03-03T21:50:12.442Z,61.03
2023-03-03T21:53:15.312Z,62.30
2023-03-03T21:56:18.167Z,59.40
2023-03-03T21:59:21.057Z,61.67
2023-03-03T22:02:23.930Z,63.37
2023-03-03T22:05:28.225Z,59.83
2023-03-03T22:08:31.317Z,62.87
2023-03-03T22:11:34.587Z,58.97
2023-03-03T22:14:37.444Z,64.70
2023-03-03T22:17:40.764Z,58.77
2023-03-03T22:20:45.063Z,61.37
2023-03-03T22:23:48.013Z,63.17
2023-03-03T22:26:51.144Z,63.83
2023-03-03T22:29:54.004Z,57.47
2023-03-03T22:32:56.879Z,70.33
2023-03-03T22:36:01.225Z,57.70
2023-03-03T22:39:04.093Z,61.17
2023-03-03T22:42:07.110Z,77.73
2023-03-03T22:45:11.217Z,74.77
2023-03-03T22:48:14.333Z,71.47
2023-03-03T22:51:22.016Z,68.33
2023-03-03T22:54:25.296Z,65.50
2023-03-03T22:57:28.480Z,62.13
2023-03-03T23:00:31.508Z,62.83
2023-03-03T23:03:34.421Z,56.73
2023-03-03T23:06:38.662Z,61.60
2023-03-03T23:09:41.522Z,65.07
2023-03-03T23:12:44.420Z,66.30
2023-03-03T23:15:47.363Z,62.60
2023-03-03T23:18:50.228Z,68.43
2023-03-03T23:21:54.516Z,70.43
2023-03-03T23:24:57.360Z,65.63
2023-03-03T23:28:00.435Z,59.87
2023-03-03T23:31:03.365Z,65.40
2023-03-03T23:34:06.262Z,65.20
2023-03-03T23:37:10.470Z,66.87
2023-03-03T23:40:15.663Z,65.80
2023-03-03T23:43:18.745Z,61.80
2023-03-03T23:46:21.700Z,68.00
2023-03-03T23:49:24.698Z,69.27
2023-03-03T23:52:28.989Z,69.50
2023-03-03T23:55:31.835Z,66.43
2023-03-03T23:58:34.749Z,67.17
